createdAt,value
2022-09-28T00:00:36.829Z,0.00
2022-09-28T00:01:36.871Z,0.00
2022-09-28T00:02:36.927Z,0.00
2022-09-28T00:03:36.767Z,0.00
2022-09-28T00:04:36.762Z,0.00
2022-09-28T00:05:36.742Z,0.00
2022-09-28T00:06:36.727Z,0.00
2022-09-28T00:07:36.713Z,0.00
2022-09-28T00:08:36.688Z,0.00
2022-09-28T00:09:36.789Z,0.00
2022-09-28T00:10:36.668Z,0.00
2022-09-28T00:11:36.684Z,0.00
2022-09-28T00:12:36.673Z,0.00
2022-09-28T00:13:36.626Z,0.00
2022-09-28T00:14:36.647Z,0.00
2022-09-28T00:15:36.601Z,0.00
2022-09-28T00:16:36.660Z,0.00
2022-09-28T00:17:36.572Z,0.00
2022-09-28T00:18:36.571Z,0.00
2022-09-28T00:19:36.583Z,0.00
2022-09-28T00:20:36.533Z,0.00
2022-09-28T00:21:36.555Z,0.00
2022-09-28T00:22:36.536Z,0.00
2022-09-28T00:23:36.504Z,0.00
2022-09-28T00:24:36.499Z,0.00
2022-09-28T00:25:36.489Z,0.00
2022-09-28T00:26:36.457Z,0.00
2022-09-28T00:27:36.444Z,0.00
2022-09-28T00:28:36.445Z,0.00
2022-09-28T00:29:36.485Z,0.00
2022-09-28T00:30:36.427Z,0.00
2022-09-28T00:31:36.461Z,0.00
2022-09-28T00:32:36.361Z,0.00
2022-09-28T00:33:36.368Z,0.00
2022-09-28T00:34:36.349Z,0.00
2022-09-28T00:35:36.353Z,0.00
2022-09-28T00:36:36.335Z,0.00
2022-09-28T00:37:36.306Z,0.00
2022-09-28T00:38:36.289Z,0.00
2022-09-28T00:39:36.283Z,0.00
2022-09-28T00:40:36.344Z,0.00
2022-09-28T00:41:36.253Z,0.00
2022-09-28T00:42:36.277Z,0.00
2022-09-28T00:43:36.243Z,0.00
2022-09-28T00:44:36.214Z,0.00
2022-09-28T00:45:36.294Z,0.00
2022-09-28T00:46:36.186Z,0.00
2022-09-28T00:47:36.170Z,0.00
2022-09-28T00:48:36.208Z,0.00
2022-09-28T00:49:36.191Z,0.00
2022-09-28T00:50:36.139Z,0.00
2022-09-28T00:51:36.136Z,0.00
2022-09-28T00:52:36.121Z,0.00
2022-09-28T00:53:36.165Z,0.00
2022-09-28T00:54:36.094Z,0.00
2022-09-28T00:55:36.083Z,0.00
2022-09-28T00:56:36.063Z,0.00
2022-09-28T00:57:36.035Z,0.00
2022-09-28T00:58:36.133Z,0.00
2022-09-28T00:59:36.015Z,0.00
2022-09-28T01:00:36.021Z,0.00
2022-09-28T01:01:36.006Z,0.00
2022-09-28T01:02:35.993Z,0.00
2022-09-28T01:03:35.998Z,0.00
2022-09-28T01:04:35.952Z,0.00
2022-09-28T01:05:35.979Z,0.00
2022-09-28T01:06:35.939Z,0.00
2022-09-28T01:07:35.917Z,0.00
2022-09-28T01:08:35.924Z,0.00
2022-09-28T01:09:36.029Z,0.00
2022-09-28T01:10:35.946Z,0.00
2022-09-28T01:11:35.857Z,0.00
2022-09-28T01:12:35.860Z,0.00
2022-09-28T01:13:35.899Z,0.00
2022-09-28T01:14:35.816Z,0.00
2022-09-28T01:15:35.804Z,0.00
2022-09-28T01:16:35.845Z,0.00
2022-09-28T01:17:35.793Z,0.00
2022-09-28T01:18:35.783Z,0.00
2022-09-28T01:19:35.753Z,0.00
2022-09-28T01:20:35.750Z,0.00
2022-09-28T01:21:35.708Z,0.00
2022-09-28T01:22:35.708Z,0.00
2022-09-28T01:23:35.733Z,0.00
2022-09-28T01:24:35.674Z,0.00
2022-09-28T01:25:35.675Z,0.00
2022-09-28T01:26:35.681Z,0.00
2022-09-28T01:27:35.638Z,0.00
2022-09-28T01:28:35.672Z,0.00
2022-09-28T01:29:35.647Z,0.00
2022-09-28T01:30:35.595Z,0.00
2022-09-28T01:31:35.643Z,0.00
2022-09-28T01:32:35.571Z,0.00
2022-09-28T01:33:36.215Z,0.00
2022-09-28T01:34:35.548Z,0.00
2022-09-28T01:35:35.568Z,0.00
2022-09-28T01:36:35.537Z,0.00
2022-09-28T01:37:35.507Z,0.00
2022-09-28T01:38:35.512Z,0.00
2022-09-28T01:39:35.474Z,0.00
2022-09-28T01:40:35.513Z,0.00
2022-09-28T01:41:35.480Z,0.00
2022-09-28T01:42:35.452Z,0.00
2022-09-28T01:43:35.460Z,0.00
2022-09-28T01:44:35.419Z,0.00
2022-09-28T01:45:35.548Z,0.00
2022-09-28T01:46:35.393Z,0.00
2022-09-28T01:47:35.399Z,0.00
2022-09-28T01:48:35.359Z,0.00
2022-09-28T01:49:35.399Z,0.00
2022-09-28T01:50:35.346Z,0.00
2022-09-28T01:51:35.339Z,0.00
2022-09-28T01:52:35.362Z,0.00
2022-09-28T01:53:35.296Z,0.00
2022-09-28T01:54:35.294Z,0.00
2022-09-28T01:55:35.263Z,0.00
2022-09-28T01:56:35.261Z,0.00
2022-09-28T01:57:35.283Z,0.00
2022-09-28T01:58:35.238Z,0.00
2022-09-28T01:59:35.233Z,0.00
2022-09-28T02:00:35.257Z,0.00
2022-09-28T02:01:35.176Z,0.00
2022-09-28T02:02:35.249Z,0.00
2022-09-28T02:03:35.182Z,0.00
2022-09-28T02:04:35.171Z,0.00
2022-09-28T02:05:35.159Z,0.00
2022-09-28T02:06:35.121Z,0.00
2022-09-28T02:07:35.128Z,0.00
2022-09-28T02:08:35.123Z,0.00
2022-09-28T02:09:35.090Z,0.00
2022-09-28T02:10:35.092Z,0.00
2022-09-28T02:11:35.051Z,0.00
2022-09-28T02:12:35.039Z,0.00
2022-09-28T02:13:35.060Z,0.00
2022-09-28T02:14:35.029Z,0.00
2022-09-28T02:15:35.023Z,0.00
2022-09-28T02:16:35.132Z,0.00
2022-09-28T02:17:34.975Z,0.00
2022-09-28T02:18:34.958Z,0.00
2022-09-28T02:19:34.951Z,0.00
2022-09-28T02:20:34.927Z,0.00
2022-09-28T02:21:34.930Z,0.00
2022-09-28T02:22:34.899Z,0.00
2022-09-28T02:23:34.916Z,0.00
2022-09-28T02:24:34.894Z,0.00
2022-09-28T02:25:34.870Z,0.00
2022-09-28T02:26:34.873Z,0.00
2022-09-28T02:27:34.838Z,0.00
2022-09-28T02:28:34.826Z,0.00
2022-09-28T02:29:34.856Z,0.00
2022-09-28T02:30:34.790Z,0.00
2022-09-28T02:31:34.932Z,0.00
2022-09-28T02:32:34.768Z,0.00
2022-09-28T02:33:34.756Z,0.00
2022-09-28T02:34:34.732Z,0.00
2022-09-28T02:35:34.749Z,0.00
2022-09-28T02:36:34.743Z,0.00
2022-09-28T02:37:34.704Z,0.00
2022-09-28T02:38:34.710Z,0.00
2022-09-28T02:39:34.675Z,0.00
2022-09-28T02:40:34.760Z,0.00
2022-09-28T02:41:34.690Z,0.00
2022-09-28T02:42:34.650Z,0.00
2022-09-28T02:43:34.618Z,0.00
2022-09-28T02:44:34.626Z,0.00
2022-09-28T02:45:34.636Z,0.00
2022-09-28T02:46:34.613Z,0.00
2022-09-28T02:47:34.607Z,0.00
2022-09-28T02:48:43.598Z,0.00
2022-09-28T02:49:34.553Z,0.00
2022-09-28T02:50:34.542Z,0.00
2022-09-28T02:51:34.542Z,0.00
2022-09-28T02:52:34.524Z,0.00
2022-09-28T02:53:34.495Z,0.00
2022-09-28T02:54:34.595Z,0.00
2022-09-28T02:55:34.477Z,0.00
2022-09-28T02:56:34.447Z,0.00
2022-09-28T02:57:34.464Z,0.00
2022-09-28T02:58:34.424Z,0.00
2022-09-28T02:59:34.456Z,0.00
2022-09-28T03:00:34.471Z,0.00
2022-09-28T03:01:34.389Z,0.00
2022-09-28T03:02:34.397Z,0.00
2022-09-28T03:03:34.468Z,0.00
2022-09-28T03:04:34.350Z,0.00
2022-09-28T03:05:34.363Z,0.00
2022-09-28T03:06:34.325Z,0.00
2022-09-28T03:07:34.329Z,0.00
2022-09-28T03:08:34.305Z,0.00
2022-09-28T03:09:34.303Z,0.00
2022-09-28T03:10:34.272Z,0.00
2022-09-28T03:11:34.264Z,0.00
2022-09-28T03:12:34.238Z,0.00
2022-09-28T03:13:34.255Z,0.00
2022-09-28T03:14:34.211Z,0.00
2022-09-28T03:15:34.209Z,0.00
2022-09-28T03:16:34.233Z,0.00
2022-09-28T03:17:34.261Z,0.00
2022-09-28T03:18:34.195Z,0.00
2022-09-28T03:19:34.161Z,0.00
2022-09-28T03:20:34.155Z,0.00
2022-09-28T03:21:34.163Z,0.00
2022-09-28T03:22:34.103Z,0.00
2022-09-28T03:23:34.091Z,0.00
2022-09-28T03:24:34.081Z,0.00
2022-09-28T03:25:34.070Z,0.00
2022-09-28T03:26:34.077Z,0.00
2022-09-28T03:27:34.057Z,0.00
2022-09-28T03:28:34.041Z,0.00
2022-09-28T03:29:34.015Z,0.00
2022-09-28T03:30:34.005Z,0.00
2022-09-28T03:31:34.053Z,0.00
2022-09-28T03:32:33.993Z,0.00
2022-09-28T03:33:33.981Z,0.00
2022-09-28T03:34:33.971Z,0.00
2022-09-28T03:35:33.927Z,0.00
2022-09-28T03:36:33.964Z,0.00
2022-09-28T03:37:33.920Z,0.00
2022-09-28T03:38:33.893Z,0.00
2022-09-28T03:39:33.932Z,0.00
2022-09-28T03:40:33.885Z,0.00
2022-09-28T03:41:33.869Z,0.00
2022-09-28T03:42:33.846Z,0.00
2022-09-28T03:43:33.853Z,0.00
2022-09-28T03:44:33.822Z,0.00
2022-09-28T03:45:33.866Z,0.00
2022-09-28T03:46:33.789Z,0.00
2022-09-28T03:47:33.776Z,0.00
2022-09-28T03:48:33.782Z,0.00
2022-09-28T03:49:33.752Z,0.00
2022-09-28T03:50:33.803Z,0.00
2022-09-28T03:51:33.745Z,0.00
2022-09-28T03:52:33.708Z,0.00
2022-09-28T03:53:33.715Z,0.00
2022-09-28T03:54:33.699Z,0.00
2022-09-28T03:55:33.685Z,0.00
2022-09-28T03:56:33.653Z,0.00
2022-09-28T03:57:33.643Z,0.00
2022-09-28T03:58:33.651Z,0.00
2022-09-28T03:59:33.632Z,0.00
2022-09-28T04:00:33.670Z,0.00
2022-09-28T04:01:33.660Z,0.00
2022-09-28T04:02:33.620Z,0.00
2022-09-28T04:03:33.581Z,0.00
2022-09-28T04:04:33.547Z,0.00
2022-09-28T04:05:33.540Z,0.00
2022-09-28T04:06:33.535Z,0.00
2022-09-28T04:07:33.502Z,0.00
2022-09-28T04:08:33.533Z,0.00
2022-09-28T04:09:33.488Z,0.00
2022-09-28T04:10:33.483Z,0.00
2022-09-28T04:11:47.538Z,0.00
2022-09-28T04:12:33.455Z,0.00
2022-09-28T04:13:33.501Z,0.00
2022-09-28T04:14:33.414Z,0.00
2022-09-28T04:15:33.399Z,0.00
2022-09-28T04:16:33.436Z,0.00
2022-09-28T04:17:36.578Z,0.00
2022-09-28T04:18:33.841Z,0.00
2022-09-28T04:19:33.334Z,0.00
2022-09-28T04:20:33.328Z,0.00
2022-09-28T04:21:33.318Z,0.00
2022-09-28T04:22:33.300Z,0.00
2022-09-28T04:23:33.338Z,0.00
2022-09-28T04:24:33.272Z,0.00
2022-09-28T04:25:33.271Z,0.00
2022-09-28T04:26:33.267Z,0.00
2022-09-28T04:27:33.233Z,0.00
2022-09-28T04:28:33.248Z,0.00
2022-09-28T04:29:33.214Z,0.00
2022-09-28T04:30:33.203Z,0.00
2022-09-28T04:31:33.320Z,0.00
2022-09-28T04:32:33.182Z,0.00
2022-09-28T04:33:33.909Z,0.00
2022-09-28T04:34:35.874Z,0.00
2022-09-28T04:35:33.176Z,0.00
2022-09-28T04:36:33.225Z,0.00
2022-09-28T04:37:33.117Z,0.00
2022-09-28T04:38:51.851Z,0.00
2022-09-28T04:39:33.127Z,0.00
2022-09-28T04:40:33.144Z,0.00
2022-09-28T04:41:33.061Z,0.00
2022-09-28T04:42:33.076Z,0.00
2022-09-28T04:43:33.024Z,0.00
2022-09-28T04:44:33.028Z,0.00
2022-09-28T04:45:33.071Z,0.00
2022-09-28T04:46:33.009Z,0.00
2022-09-28T04:47:32.991Z,0.00
2022-09-28T04:48:33.013Z,0.00
2022-09-28T04:49:32.942Z,0.00
2022-09-28T04:50:32.927Z,0.00
2022-09-28T04:51:32.933Z,0.00
2022-09-28T04:52:33.343Z,0.00
2022-09-28T04:53:32.910Z,0.00
2022-09-28T04:54:32.908Z,0.00
2022-09-28T04:55:32.898Z,0.00
2022-09-28T04:56:32.916Z,0.00
2022-09-28T04:57:32.872Z,0.00
2022-09-28T04:58:32.875Z,0.00
2022-09-28T04:59:32.833Z,0.00
2022-09-28T05:00:32.813Z,0.00
2022-09-28T05:01:32.842Z,0.00
2022-09-28T05:02:32.854Z,0.00
2022-09-28T05:03:32.883Z,0.00
2022-09-28T05:04:32.748Z,0.00
2022-09-28T05:05:32.722Z,0.00
2022-09-28T05:06:32.724Z,0.00
2022-09-28T05:07:32.716Z,0.00
2022-09-28T05:08:32.722Z,0.00
2022-09-28T05:09:36.346Z,0.00
2022-09-28T05:10:32.684Z,0.00
2022-09-28T05:11:32.693Z,0.00
2022-09-28T05:12:32.676Z,0.00
2022-09-28T05:13:32.655Z,0.00
2022-09-28T05:14:32.630Z,0.00
2022-09-28T05:15:32.606Z,0.00
2022-09-28T05:16:32.952Z,0.00
2022-09-28T05:17:32.587Z,0.00
2022-09-28T05:18:32.596Z,0.00
2022-09-28T05:19:32.577Z,0.00
2022-09-28T05:20:32.542Z,0.00
2022-09-28T05:21:32.518Z,0.00
2022-09-28T05:22:32.525Z,0.00
2022-09-28T05:23:34.524Z,0.00
2022-09-28T05:24:32.483Z,0.00
2022-09-28T05:25:32.476Z,0.00
2022-09-28T05:26:32.441Z,0.00
2022-09-28T05:27:32.436Z,0.00
2022-09-28T05:28:32.458Z,0.00
2022-09-28T05:29:33.348Z,0.00
2022-09-28T05:30:32.414Z,0.00
2022-09-28T05:31:32.490Z,0.00
2022-09-28T05:32:32.366Z,0.00
2022-09-28T05:33:32.379Z,0.00
2022-09-28T05:34:32.384Z,0.00
2022-09-28T05:35:32.347Z,0.00
2022-09-28T05:36:32.335Z,0.00
2022-09-28T05:37:32.316Z,0.00
2022-09-28T05:38:32.342Z,4.00
2022-09-28T05:39:32.334Z,4.00
2022-09-28T05:40:32.309Z,4.00
2022-09-28T05:41:32.258Z,4.00
2022-09-28T05:42:32.290Z,0.00
2022-09-28T05:43:32.274Z,0.00
2022-09-28T05:44:32.204Z,4.00
2022-09-28T05:45:32.287Z,0.00
2022-09-28T05:46:32.185Z,4.00
2022-09-28T05:47:32.172Z,4.00
2022-09-28T05:48:32.189Z,0.00
2022-09-28T05:49:32.416Z,4.00
2022-09-28T05:50:32.156Z,4.00
2022-09-28T05:51:32.481Z,0.00
2022-09-28T05:52:32.091Z,4.00
2022-09-28T05:53:32.116Z,4.00
2022-09-28T05:54:32.118Z,4.00
2022-09-28T05:55:32.095Z,4.00
2022-09-28T05:56:32.069Z,4.00
2022-09-28T05:57:32.040Z,4.00
2022-09-28T05:58:32.033Z,4.00
2022-09-28T05:59:32.159Z,4.00
2022-09-28T06:00:32.000Z,4.00
2022-09-28T06:01:32.032Z,8.00
2022-09-28T06:02:32.013Z,4.00
2022-09-28T06:03:31.961Z,8.00
2022-09-28T06:04:31.954Z,8.00
2022-09-28T06:05:31.933Z,12.00
2022-09-28T06:06:31.952Z,12.00
2022-09-28T06:07:31.898Z,8.00
2022-09-28T06:08:31.908Z,12.00
2022-09-28T06:09:31.915Z,12.00
2022-09-28T06:10:31.872Z,16.00
2022-09-28T06:11:31.857Z,16.00
2022-09-28T06:12:31.849Z,12.00
2022-09-28T06:13:31.862Z,16.00
2022-09-28T06:14:31.824Z,16.00
2022-09-28T06:15:31.836Z,16.00
2022-09-28T06:16:31.813Z,16.00
2022-09-28T06:17:31.768Z,12.00
2022-09-28T06:18:31.784Z,12.00
2022-09-28T06:19:31.780Z,16.00
2022-09-28T06:20:31.758Z,16.00
2022-09-28T06:21:31.739Z,20.00
2022-09-28T06:22:31.717Z,24.00
2022-09-28T06:23:31.706Z,24.00
2022-09-28T06:24:31.710Z,20.00
2022-09-28T06:25:31.679Z,16.00
2022-09-28T06:26:31.655Z,16.00
2022-09-28T06:27:31.696Z,12.00
2022-09-28T06:28:31.675Z,16.00
2022-09-28T06:29:31.623Z,20.00
2022-09-28T06:30:31.640Z,28.00
2022-09-28T06:31:31.585Z,28.00
2022-09-28T06:32:31.590Z,28.00
2022-09-28T06:33:31.572Z,32.00
2022-09-28T06:34:31.569Z,32.00
2022-09-28T06:35:31.577Z,32.00
2022-09-28T06:36:31.540Z,36.00
2022-09-28T06:37:31.565Z,48.00
2022-09-28T06:38:31.534Z,48.00
2022-09-28T06:39:31.482Z,56.00
2022-09-28T06:40:31.510Z,60.00
2022-09-28T06:41:31.457Z,72.00
2022-09-28T06:42:31.464Z,80.00
2022-09-28T06:43:34.347Z,88.00
2022-09-28T06:44:31.438Z,88.00
2022-09-28T06:45:31.417Z,88.00
2022-09-28T06:46:31.552Z,88.00
2022-09-28T06:47:31.375Z,88.00
2022-09-28T06:48:31.409Z,88.00
2022-09-28T06:49:31.339Z,88.00
2022-09-28T06:50:31.343Z,88.00
2022-09-28T06:51:31.317Z,100.00
2022-09-28T06:52:31.316Z,100.00
2022-09-28T06:53:31.319Z,80.00
2022-09-28T06:54:31.284Z,80.00
2022-09-28T06:55:31.260Z,76.00
2022-09-28T06:56:32.999Z,88.00
2022-09-28T06:57:31.240Z,84.00
2022-09-28T06:58:31.243Z,92.00
2022-09-28T06:59:31.212Z,88.00
2022-09-28T07:00:31.224Z,96.00
2022-09-28T07:01:31.265Z,104.00
2022-09-28T07:02:31.230Z,112.00
2022-09-28T07:03:31.291Z,128.00
2022-09-28T07:04:31.167Z,148.00
2022-09-28T07:05:31.121Z,216.00
2022-09-28T07:06:31.187Z,188.00
2022-09-28T07:07:31.145Z,200.00
2022-09-28T07:08:31.101Z,272.00
2022-09-28T07:09:33.454Z,180.00
2022-09-28T07:10:31.075Z,220.00
2022-09-28T07:11:31.089Z,308.00
2022-09-28T07:12:31.052Z,204.00
2022-09-28T07:13:50.704Z,240.00
2022-09-28T07:14:46.735Z,280.00
2022-09-28T07:15:31.006Z,168.00
2022-09-28T07:16:48.979Z,192.00
2022-09-28T07:17:31.318Z,172.00
2022-09-28T07:18:31.008Z,240.00
2022-09-28T07:19:30.961Z,472.00
2022-09-28T07:20:31.368Z,336.00
2022-09-28T07:21:31.092Z,280.00
2022-09-28T07:22:42.086Z,296.00
2022-09-28T07:23:31.239Z,288.00
2022-09-28T07:24:30.898Z,548.00
2022-09-28T07:25:30.869Z,388.00
2022-09-28T07:26:30.889Z,336.00
2022-09-28T07:27:30.841Z,244.00
2022-09-28T07:28:30.833Z,248.00
2022-09-28T07:29:30.832Z,272.00
2022-09-28T07:30:30.877Z,208.00
2022-09-28T07:31:30.785Z,204.00
2022-09-28T07:33:30.772Z,212.00
2022-09-28T07:34:30.832Z,200.00
2022-09-28T07:35:30.715Z,276.00
2022-09-28T07:36:30.756Z,192.00
2022-09-28T07:37:30.812Z,236.00
2022-09-28T07:38:30.696Z,344.00
2022-09-28T07:39:30.691Z,212.00
2022-09-28T07:40:30.697Z,208.00
2022-09-28T07:41:30.700Z,180.00
2022-09-28T07:42:30.634Z,176.00
2022-09-28T07:43:30.662Z,180.00
2022-09-28T07:44:30.625Z,180.00
2022-09-28T07:45:30.692Z,180.00
2022-09-28T07:46:30.590Z,180.00
2022-09-28T07:47:34.893Z,192.00
2022-09-28T07:48:30.591Z,184.00
2022-09-28T07:49:30.596Z,172.00
2022-09-28T07:50:30.536Z,172.00
2022-09-28T07:51:30.545Z,200.00
2022-09-28T07:52:30.506Z,176.00
2022-09-28T07:53:30.503Z,156.00
2022-09-28T07:54:30.507Z,152.00
2022-09-28T07:55:30.474Z,164.00
2022-09-28T07:56:30.469Z,164.00
2022-09-28T07:57:30.432Z,172.00
2022-09-28T07:58:30.432Z,192.00
2022-09-28T07:59:30.448Z,232.00
2022-09-28T08:00:33.953Z,208.00
2022-09-28T08:01:30.504Z,196.00
2022-09-28T08:02:30.436Z,180.00
2022-09-28T08:03:30.374Z,184.00
2022-09-28T08:04:30.374Z,208.00
2022-09-28T08:05:30.333Z,200.00
2022-09-28T08:06:30.346Z,212.00
2022-09-28T08:07:30.307Z,208.00
2022-09-28T08:08:30.280Z,212.00
2022-09-28T08:09:30.280Z,224.00
2022-09-28T08:10:30.273Z,248.00
2022-09-28T08:11:30.247Z,256.00
2022-09-28T08:12:30.246Z,256.00
2022-09-28T08:13:30.205Z,208.00
2022-09-28T08:14:30.208Z,232.00
2022-09-28T08:15:30.215Z,224.00
2022-09-28T08:16:30.417Z,228.00
2022-09-28T08:17:30.264Z,204.00
2022-09-28T08:18:30.704Z,204.00
2022-09-28T08:19:30.132Z,200.00
2022-09-28T08:20:30.902Z,184.00
2022-09-28T08:21:30.148Z,192.00
2022-09-28T08:22:30.125Z,208.00
2022-09-28T08:23:30.081Z,200.00
2022-09-28T08:24:30.064Z,220.00
2022-09-28T08:25:30.065Z,316.00
2022-09-28T08:26:30.090Z,260.00
2022-09-28T08:27:30.025Z,236.00
2022-09-28T08:28:30.067Z,240.00
2022-09-28T08:29:30.000Z,252.00
2022-09-28T08:30:30.070Z,208.00
2022-09-28T08:31:30.040Z,244.00
2022-09-28T08:32:30.001Z,240.00
2022-09-28T08:33:29.963Z,240.00
2022-09-28T08:34:29.936Z,240.00
2022-09-28T08:35:29.960Z,240.00
2022-09-28T08:36:29.947Z,248.00
2022-09-28T08:37:29.941Z,248.00
2022-09-28T08:38:29.909Z,244.00
2022-09-28T08:39:29.874Z,212.00
2022-09-28T08:40:29.935Z,204.00
2022-09-28T08:41:29.838Z,192.00
2022-09-28T08:42:29.855Z,192.00
2022-09-28T08:43:29.848Z,188.00
2022-09-28T08:44:29.862Z,192.00
2022-09-28T08:45:29.782Z,176.00
2022-09-28T08:46:29.825Z,188.00
2022-09-28T08:47:29.753Z,188.00
2022-09-28T08:48:29.788Z,208.00
2022-09-28T08:49:29.747Z,192.00
2022-09-28T08:50:29.773Z,192.00
2022-09-28T08:51:29.684Z,196.00
2022-09-28T08:52:29.722Z,196.00
2022-09-28T08:53:29.690Z,196.00
2022-09-28T08:54:29.691Z,184.00
2022-09-28T08:55:29.653Z,192.00
2022-09-28T08:56:29.667Z,188.00
2022-09-28T08:57:29.684Z,200.00
2022-09-28T08:58:29.655Z,196.00
2022-09-28T08:59:29.630Z,208.00
2022-09-28T09:00:29.589Z,208.00
2022-09-28T09:01:29.636Z,220.00
2022-09-28T09:02:29.684Z,220.00
2022-09-28T09:03:29.598Z,236.00
2022-09-28T09:04:29.575Z,256.00
2022-09-28T09:05:29.525Z,252.00
2022-09-28T09:06:29.518Z,292.00
2022-09-28T09:07:29.482Z,288.00
2022-09-28T09:08:29.500Z,284.00
2022-09-28T09:09:29.508Z,244.00
2022-09-28T09:10:29.463Z,256.00
2022-09-28T09:11:29.441Z,168.00
2022-09-28T09:12:29.482Z,164.00
2022-09-28T09:13:29.476Z,108.00
2022-09-28T09:14:29.436Z,120.00
2022-09-28T09:15:29.401Z,176.00
2022-09-28T09:16:29.443Z,264.00
2022-09-28T09:17:29.388Z,264.00
2022-09-28T09:18:29.341Z,272.00
2022-09-28T09:19:29.370Z,356.00
2022-09-28T09:20:29.318Z,304.00
2022-09-28T09:21:29.326Z,264.00
2022-09-28T09:22:29.364Z,392.00
2022-09-28T09:23:29.289Z,376.00
2022-09-28T09:24:29.312Z,396.00
2022-09-28T09:25:29.280Z,356.00
2022-09-28T09:26:29.250Z,616.00
2022-09-28T09:27:29.274Z,284.00
2022-09-28T09:28:29.195Z,500.00
2022-09-28T09:29:29.190Z,456.00
2022-09-28T09:30:31.599Z,468.00
2022-09-28T09:31:29.180Z,508.00
2022-09-28T09:32:29.154Z,500.00
2022-09-28T09:33:29.132Z,500.00
2022-09-28T09:34:29.147Z,244.00
2022-09-28T09:35:31.266Z,280.00
2022-09-28T09:36:29.157Z,336.00
2022-09-28T09:37:29.096Z,320.00
2022-09-28T09:38:29.084Z,508.00
2022-09-28T09:39:29.120Z,456.00
2022-09-28T09:40:29.154Z,356.00
2022-09-28T09:41:29.070Z,420.00
2022-09-28T09:42:29.019Z,536.00
2022-09-28T09:43:31.597Z,220.00
2022-09-28T09:44:29.007Z,196.00
2022-09-28T09:45:28.985Z,288.00
2022-09-28T09:46:29.000Z,384.00
2022-09-28T09:47:28.979Z,424.00
2022-09-28T09:48:28.959Z,344.00
2022-09-28T09:49:28.920Z,364.00
2022-09-28T09:50:28.916Z,144.00
2022-09-28T09:51:28.897Z,332.00
2022-09-28T09:52:29.976Z,520.00
2022-09-28T09:53:28.853Z,540.00
2022-09-28T09:54:28.850Z,348.00
2022-09-28T09:55:29.974Z,352.00
2022-09-28T09:56:28.882Z,452.00
2022-09-28T09:57:28.838Z,660.00
2022-09-28T09:58:28.797Z,580.00
2022-09-28T09:59:28.792Z,736.00
2022-09-28T10:00:28.792Z,736.00
2022-09-28T10:01:28.858Z,812.00
2022-09-28T10:02:28.815Z,664.00
2022-09-28T10:03:28.737Z,664.00
2022-09-28T10:04:28.706Z,436.00
2022-09-28T10:05:28.750Z,416.00
2022-09-28T10:06:28.759Z,372.00
2022-09-28T10:07:28.677Z,240.00
2022-09-28T10:08:28.696Z,176.00
2022-09-28T10:09:28.663Z,556.00
2022-09-28T10:10:28.653Z,472.00
2022-09-28T10:11:28.645Z,320.00
2022-09-28T10:12:28.616Z,268.00
2022-09-28T10:13:28.598Z,800.00
2022-09-28T10:14:28.588Z,404.00
2022-09-28T10:15:28.573Z,384.00
2022-09-28T10:16:28.775Z,220.00
2022-09-28T10:17:28.585Z,136.00
2022-09-28T10:18:28.580Z,236.00
2022-09-28T10:19:28.544Z,292.00
2022-09-28T10:20:28.524Z,432.00
2022-09-28T10:21:28.503Z,436.00
2022-09-28T10:22:28.524Z,416.00
2022-09-28T10:23:28.498Z,436.00
2022-09-28T10:24:28.677Z,444.00
2022-09-28T10:25:28.443Z,452.00
2022-09-28T10:26:28.431Z,432.00
2022-09-28T10:27:28.457Z,388.00
2022-09-28T10:28:28.391Z,412.00
2022-09-28T10:29:28.401Z,388.00
2022-09-28T10:30:28.480Z,372.00
2022-09-28T10:31:28.367Z,336.00
2022-09-28T10:32:28.352Z,348.00
2022-09-28T10:33:28.364Z,364.00
2022-09-28T10:34:28.339Z,352.00
2022-09-28T10:35:28.306Z,376.00
2022-09-28T10:36:28.277Z,420.00
2022-09-28T10:37:28.423Z,384.00
2022-09-28T10:38:28.267Z,388.00
2022-09-28T10:39:28.279Z,400.00
2022-09-28T10:40:28.461Z,396.00
2022-09-28T10:41:28.233Z,396.00
2022-09-28T10:42:29.172Z,400.00
2022-09-28T10:43:28.246Z,388.00
2022-09-28T10:44:28.193Z,388.00
2022-09-28T10:45:28.177Z,396.00
2022-09-28T10:46:28.202Z,360.00
2022-09-28T10:47:28.146Z,384.00
2022-09-28T10:48:28.153Z,376.00
2022-09-28T10:49:28.143Z,372.00
2022-09-28T10:50:28.128Z,360.00
2022-09-28T10:51:28.131Z,360.00
2022-09-28T10:52:28.067Z,356.00
2022-09-28T10:53:28.096Z,356.00
2022-09-28T10:54:28.063Z,352.00
2022-09-28T10:55:28.044Z,344.00
2022-09-28T10:56:28.054Z,348.00
2022-09-28T10:57:28.002Z,348.00
2022-09-28T10:58:27.984Z,352.00
2022-09-28T10:59:27.982Z,360.00
2022-09-28T11:00:27.989Z,348.00
2022-09-28T11:01:28.007Z,356.00
2022-09-28T11:02:29.542Z,344.00
2022-09-28T11:03:27.939Z,360.00
2022-09-28T11:04:27.908Z,348.00
2022-09-28T11:05:27.952Z,348.00
2022-09-28T11:06:27.912Z,344.00
2022-09-28T11:07:27.908Z,336.00
2022-09-28T11:08:27.858Z,324.00
2022-09-28T11:09:30.549Z,332.00
2022-09-28T11:10:27.835Z,332.00
2022-09-28T11:11:27.881Z,316.00
2022-09-28T11:12:27.810Z,328.00
2022-09-28T11:13:27.793Z,316.00
2022-09-28T11:14:27.769Z,316.00
2022-09-28T11:15:27.766Z,296.00
2022-09-28T11:16:27.797Z,288.00
2022-09-28T11:17:27.888Z,284.00
2022-09-28T11:18:27.755Z,304.00
2022-09-28T11:19:27.716Z,316.00
2022-09-28T11:20:28.598Z,300.00
2022-09-28T11:21:27.698Z,296.00
2022-09-28T11:22:27.695Z,284.00
2022-09-28T11:23:27.668Z,288.00
2022-09-28T11:24:27.702Z,284.00
2022-09-28T11:25:27.652Z,276.00
2022-09-28T11:26:27.615Z,288.00
2022-09-28T11:27:27.631Z,296.00
2022-09-28T11:28:27.599Z,296.00
2022-09-28T11:29:27.604Z,300.00
2022-09-28T11:30:27.656Z,296.00
2022-09-28T11:31:27.563Z,272.00
2022-09-28T11:32:27.530Z,272.00
2022-09-28T11:33:27.660Z,256.00
2022-09-28T11:34:36.403Z,252.00
2022-09-28T11:35:27.537Z,248.00
2022-09-28T11:36:27.497Z,256.00
2022-09-28T11:37:27.479Z,252.00
2022-09-28T11:38:27.537Z,248.00
2022-09-28T11:39:27.439Z,244.00
2022-09-28T11:40:27.497Z,236.00
2022-09-28T11:41:27.446Z,240.00
2022-09-28T11:42:27.437Z,228.00
2022-09-28T11:43:27.415Z,244.00
2022-09-28T11:44:30.861Z,220.00
2022-09-28T11:45:27.369Z,216.00
2022-09-28T11:46:27.455Z,208.00
2022-09-28T11:47:27.344Z,200.00
2022-09-28T11:48:27.331Z,200.00
2022-09-28T11:49:27.306Z,204.00
2022-09-28T11:50:27.336Z,160.00
2022-09-28T11:51:27.292Z,156.00
2022-09-28T11:52:27.333Z,164.00
2022-09-28T11:53:27.275Z,144.00
2022-09-28T11:54:27.249Z,148.00
2022-09-28T11:55:27.244Z,156.00
2022-09-28T11:56:27.233Z,204.00
2022-09-28T11:57:27.198Z,224.00
2022-09-28T11:58:27.233Z,252.00
2022-09-28T11:59:27.169Z,232.00
2022-09-28T12:00:27.167Z,216.00
2022-09-28T12:01:27.160Z,196.00
2022-09-28T12:02:27.184Z,172.00
2022-09-28T12:03:27.273Z,184.00
2022-09-28T12:04:27.126Z,200.00
2022-09-28T12:05:27.094Z,200.00
2022-09-28T12:06:27.070Z,200.00
2022-09-28T12:07:27.127Z,212.00
2022-09-28T12:08:27.098Z,216.00
2022-09-28T12:09:27.058Z,208.00
2022-09-28T12:10:27.034Z,204.00
2022-09-28T12:11:27.034Z,208.00
2022-09-28T12:12:27.006Z,200.00
2022-09-28T12:13:27.027Z,208.00
2022-09-28T12:14:27.009Z,188.00
2022-09-28T12:15:26.970Z,196.00
2022-09-28T12:17:00.540Z,176.00
2022-09-28T12:17:27.099Z,164.00
2022-09-28T12:18:26.942Z,168.00
2022-09-28T12:19:26.906Z,188.00
2022-09-28T12:20:26.903Z,184.00
2022-09-28T12:21:26.942Z,196.00
2022-09-28T12:22:26.883Z,204.00
2022-09-28T12:23:26.885Z,208.00
2022-09-28T12:24:26.878Z,200.00
2022-09-28T12:25:26.839Z,208.00
2022-09-28T12:26:27.177Z,216.00
2022-09-28T12:27:26.823Z,216.00
2022-09-28T12:28:26.828Z,236.00
2022-09-28T12:29:26.784Z,240.00
2022-09-28T12:30:26.792Z,224.00
2022-09-28T12:31:26.762Z,224.00
2022-09-28T12:32:26.758Z,224.00
2022-09-28T12:33:26.762Z,208.00
2022-09-28T12:34:26.755Z,184.00
2022-09-28T12:35:26.697Z,168.00
2022-09-28T12:36:26.730Z,152.00
2022-09-28T12:37:26.657Z,152.00
2022-09-28T12:38:26.680Z,148.00
2022-09-28T12:39:40.917Z,144.00
2022-09-28T12:40:26.716Z,148.00
2022-09-28T12:41:26.642Z,148.00
2022-09-28T12:42:26.615Z,148.00
2022-09-28T12:43:26.606Z,140.00
2022-09-28T12:44:26.579Z,156.00
2022-09-28T12:45:26.605Z,148.00
2022-09-28T12:46:26.654Z,144.00
2022-09-28T12:47:26.536Z,148.00
2022-09-28T12:48:26.544Z,152.00
2022-09-28T12:50:47.663Z,160.00
2022-09-28T12:51:26.497Z,164.00
2022-09-28T12:52:26.571Z,164.00
2022-09-28T12:53:26.457Z,172.00
2022-09-28T12:54:26.442Z,172.00
2022-09-28T12:55:26.429Z,172.00